createdAt,value
2023-05-23T00:02:28.923Z,69.77
2023-05-23T00:04:58.501Z,70.19
2023-05-23T00:07:28.124Z,70.23
2023-05-23T00:09:56.267Z,70.44
2023-05-23T00:12:24.447Z,70.13
2023-05-23T00:14:53.612Z,70.46
2023-05-23T00:17:25.415Z,70.50
2023-05-23T00:19:56.121Z,70.99
2023-05-23T00:22:24.441Z,70.60
2023-05-23T00:24:53.960Z,70.59
2023-05-23T00:27:22.051Z,70.67
2023-05-23T00:29:50.399Z,70.66
2023-05-23T00:32:18.489Z,70.59
2023-05-23T00:34:46.884Z,71.08
2023-05-23T00:37:15.146Z,70.79
2023-05-23T00:39:43.318Z,70.78
2023-05-23T00:42:12.880Z,71.02
2023-05-23T00:44:41.081Z,70.93
2023-05-23T00:47:09.691Z,70.79
2023-05-23T00:49:38.087Z,70.81
2023-05-23T00:52:07.680Z,70.75
2023-05-23T00:54:37.481Z,71.04
2023-05-23T00:57:06.694Z,70.82
2023-05-23T00:59:38.976Z,70.96
2023-05-23T01:02:08.386Z,71.18
2023-05-23T01:04:37.473Z,70.85
2023-05-23T01:07:06.427Z,70.93
2023-05-23T01:09:34.852Z,71.38
2023-05-23T01:12:18.237Z,71.05
2023-05-23T01:14:58.021Z,71.38
2023-05-23T01:17:43.764Z,71.62
2023-05-23T01:20:15.877Z,71.68
2023-05-23T01:23:15.498Z,71.46
2023-05-23T01:26:14.742Z,71.36
2023-05-23T01:28:48.758Z,71.82
2023-05-23T01:31:18.586Z,71.95
2023-05-23T01:33:50.165Z,71.87
2023-05-23T01:36:18.382Z,72.32
2023-05-23T01:38:46.584Z,72.50
2023-05-23T01:41:14.752Z,72.47
2023-05-23T01:43:44.295Z,72.42
2023-05-23T01:46:13.051Z,72.31
2023-05-23T01:48:42.321Z,72.31
2023-05-23T01:51:10.610Z,72.77
2023-05-23T01:53:39.189Z,72.93
2023-05-23T01:56:07.550Z,73.13
2023-05-23T01:58:35.980Z,72.87
2023-05-23T02:01:07.429Z,72.99
2023-05-23T02:03:37.110Z,72.91
2023-05-23T02:06:06.834Z,73.01
2023-05-23T02:08:36.025Z,73.21
2023-05-23T02:11:04.338Z,72.66
2023-05-23T02:13:32.536Z,72.92
2023-05-23T02:16:00.913Z,72.61
2023-05-23T02:18:31.562Z,72.54
2023-05-23T02:20:59.940Z,72.43
2023-05-23T02:23:27.996Z,72.31
2023-05-23T02:25:56.148Z,72.43
2023-05-23T02:28:24.365Z,72.22
2023-05-23T02:30:52.571Z,72.12
2023-05-23T02:33:20.719Z,72.40
2023-05-23T02:35:51.551Z,72.21
2023-05-23T02:38:20.680Z,72.24
2023-05-23T02:40:50.457Z,72.07
2023-05-23T02:43:18.999Z,72.53
2023-05-23T02:45:47.377Z,72.50
2023-05-23T02:48:17.458Z,72.44
2023-05-23T02:50:46.385Z,72.27
2023-05-23T02:53:16.252Z,72.29
2023-05-23T02:55:44.588Z,72.30
2023-05-23T02:58:12.965Z,72.40
2023-05-23T03:00:43.704Z,72.31
2023-05-23T03:03:12.090Z,72.32
2023-05-23T03:05:40.722Z,72.41
2023-05-23T03:08:09.052Z,72.45
2023-05-23T03:10:38.592Z,72.33
2023-05-23T03:13:06.839Z,72.21
2023-05-23T03:15:36.542Z,72.17
2023-05-23T03:18:05.136Z,72.08
2023-05-23T03:20:33.424Z,72.60
2023-05-23T03:23:01.797Z,72.23
2023-05-23T03:25:29.997Z,72.23
2023-05-23T03:27:59.752Z,72.13
2023-05-23T03:30:28.148Z,72.08
2023-05-23T03:32:56.428Z,72.59
2023-05-23T03:35:24.653Z,72.35
2023-05-23T03:37:52.856Z,72.28
2023-05-23T03:40:22.110Z,72.34
2023-05-23T03:43:02.598Z,72.28
2023-05-23T03:45:32.380Z,72.15
2023-05-23T03:48:02.829Z,72.23
2023-05-23T03:50:31.703Z,72.41
2023-05-23T03:53:00.367Z,72.54
2023-05-23T03:55:34.432Z,72.37
2023-05-23T03:58:04.105Z,72.45
2023-05-23T04:00:33.764Z,72.33
2023-05-23T04:03:04.902Z,72.04
2023-05-23T04:05:33.810Z,72.38
2023-05-23T04:08:02.343Z,72.42
2023-05-23T04:10:31.272Z,72.41
2023-05-23T04:13:00.334Z,72.17
2023-05-23T04:15:29.111Z,72.40
2023-05-23T04:18:01.362Z,72.20
2023-05-23T04:20:29.761Z,72.31
2023-05-23T04:22:57.883Z,72.18
2023-05-23T04:25:27.358Z,72.43
2023-05-23T04:28:18.624Z,72.48
2023-05-23T04:30:49.374Z,72.34
2023-05-23T04:33:22.152Z,71.99
2023-05-23T04:35:51.217Z,72.26
2023-05-23T04:38:19.544Z,71.77
2023-05-23T04:40:48.263Z,72.04
2023-05-23T04:43:42.476Z,72.13
2023-05-23T04:46:26.835Z,72.08
2023-05-23T04:49:29.456Z,72.00
2023-05-23T04:51:57.797Z,71.81
2023-05-23T04:54:28.831Z,72.03
2023-05-23T04:57:00.178Z,71.98
2023-05-23T04:59:30.551Z,71.92
2023-05-23T05:01:58.652Z,71.64
2023-05-23T05:04:28.343Z,71.83
2023-05-23T05:06:57.338Z,72.15
2023-05-23T05:09:25.896Z,71.87
2023-05-23T05:11:54.064Z,71.96
2023-05-23T05:14:22.219Z,71.55
2023-05-23T05:16:50.810Z,71.18
2023-05-23T05:19:19.219Z,71.55
2023-05-23T05:21:49.004Z,71.84
2023-05-23T05:24:17.277Z,71.62
2023-05-23T05:26:45.879Z,71.62
2023-05-23T05:29:14.034Z,71.80
2023-05-23T05:31:43.507Z,72.02
2023-05-23T05:34:12.695Z,72.23
2023-05-23T05:36:45.859Z,72.41
2023-05-23T05:39:17.055Z,72.17
2023-05-23T05:41:45.445Z,72.15
2023-05-23T05:44:15.078Z,72.21
2023-05-23T05:46:43.410Z,72.21
2023-05-23T05:49:12.489Z,71.97
2023-05-23T05:51:41.202Z,72.06
2023-05-23T05:54:11.105Z,71.51
2023-05-23T05:56:42.292Z,71.66
2023-05-23T05:59:11.313Z,71.82
2023-05-23T06:01:40.827Z,71.77
2023-05-23T06:04:09.254Z,71.88
2023-05-23T06:06:37.628Z,71.68
2023-05-23T06:09:05.948Z,71.12
2023-05-23T06:11:35.152Z,70.94
2023-05-23T06:14:29.367Z,70.84
2023-05-23T06:16:58.185Z,70.94
2023-05-23T06:19:26.409Z,71.35
2023-05-23T06:21:55.055Z,71.17
2023-05-23T06:24:23.692Z,71.07
2023-05-23T06:26:51.768Z,71.31
2023-05-23T06:29:21.401Z,70.80
2023-05-23T06:31:49.633Z,70.46
2023-05-23T06:34:18.070Z,70.71
2023-05-23T06:36:48.446Z,70.95
2023-05-23T06:39:17.693Z,70.99
2023-05-23T06:41:46.024Z,70.76
2023-05-23T06:44:14.860Z,70.92
2023-05-23T06:46:47.606Z,70.81
2023-05-23T06:49:16.795Z,70.56
2023-05-23T06:51:46.462Z,70.70
2023-05-23T06:54:14.994Z,70.41
2023-05-23T06:56:43.335Z,69.85
2023-05-23T06:59:11.832Z,69.80
2023-05-23T07:01:40.911Z,69.55
2023-05-23T07:04:12.096Z,69.83
2023-05-23T07:06:40.612Z,69.52
2023-05-23T07:09:11.843Z,68.94
2023-05-23T07:11:41.294Z,69.57
2023-05-23T07:14:10.671Z,69.30
2023-05-23T07:16:42.849Z,69.01
2023-05-23T07:19:12.442Z,69.25
2023-05-23T07:21:47.309Z,69.04
2023-05-23T07:24:18.234Z,68.85
2023-05-23T07:26:46.506Z,68.47
2023-05-23T07:29:14.602Z,68.20
2023-05-23T07:31:44.745Z,68.85
2023-05-23T07:34:17.345Z,69.16
2023-05-23T07:36:54.370Z,68.87
2023-05-23T07:39:24.413Z,69.03
2023-05-23T07:41:53.558Z,69.06
2023-05-23T07:44:24.622Z,68.99
2023-05-23T07:46:54.083Z,68.53
2023-05-23T07:49:24.428Z,68.49
2023-05-23T07:51:52.612Z,68.72
2023-05-23T07:54:20.864Z,68.50
2023-05-23T07:56:53.924Z,67.52
2023-05-23T07:59:22.675Z,66.81
2023-05-23T08:01:52.632Z,67.34
2023-05-23T08:04:24.826Z,67.07
2023-05-23T08:07:04.063Z,66.99
2023-05-23T08:10:08.341Z,66.57
2023-05-23T08:12:36.574Z,66.41
2023-05-23T08:15:13.094Z,66.87
2023-05-23T08:17:48.749Z,67.00
2023-05-23T08:20:19.480Z,66.47
2023-05-23T08:22:47.798Z,66.69
2023-05-23T08:25:16.267Z,66.85
2023-05-23T08:27:44.624Z,66.71
2023-05-23T08:30:33.958Z,66.79
2023-05-23T08:33:04.865Z,66.73
2023-05-23T08:35:36.579Z,67.15
2023-05-23T08:38:08.942Z,66.40
2023-05-23T08:40:43.458Z,66.33
2023-05-23T08:43:14.618Z,65.89
2023-05-23T08:45:43.345Z,65.61
2023-05-23T08:48:16.075Z,65.83
2023-05-23T08:50:50.510Z,66.03
2023-05-23T08:53:24.171Z,65.17
2023-05-23T08:56:02.620Z,65.68
2023-05-23T08:58:41.856Z,65.59
2023-05-23T09:01:11.618Z,65.00
2023-05-23T09:03:42.394Z,64.92
2023-05-23T09:06:22.988Z,64.99
2023-05-23T09:08:53.566Z,64.49
2023-05-23T09:11:24.439Z,65.38
2023-05-23T09:13:52.645Z,65.57
2023-05-23T09:16:22.928Z,65.09
2023-05-23T09:18:55.953Z,64.10
2023-05-23T09:21:28.381Z,63.98
2023-05-23T09:24:11.313Z,63.45
2023-05-23T09:26:40.878Z,63.67
2023-05-23T09:29:08.992Z,63.47
2023-05-23T09:31:37.444Z,63.43
2023-05-23T09:34:06.929Z,62.92
2023-05-23T09:36:37.490Z,63.07
2023-05-23T09:39:06.539Z,62.85
2023-05-23T09:41:36.199Z,63.05
2023-05-23T09:44:09.331Z,63.59
2023-05-23T09:46:39.559Z,62.71
2023-05-23T09:49:18.930Z,62.88
2023-05-23T09:51:59.812Z,62.97
2023-05-23T09:54:28.206Z,62.73
2023-05-23T09:56:57.598Z,62.61
2023-05-23T09:59:29.480Z,62.42
2023-05-23T10:01:58.781Z,62.25
2023-05-23T10:04:29.416Z,61.43
2023-05-23T10:07:07.962Z,61.78
2023-05-23T10:09:40.710Z,62.18
2023-05-23T10:12:45.533Z,60.33
2023-05-23T10:15:17.761Z,59.59
2023-05-23T10:18:07.831Z,58.99
2023-05-23T10:20:40.678Z,57.95
2023-05-23T10:23:11.924Z,58.46
2023-05-23T10:25:42.119Z,59.03
2023-05-23T10:28:10.886Z,58.34
2023-05-23T10:30:39.920Z,58.47
2023-05-23T10:33:09.583Z,59.31
2023-05-23T10:35:52.258Z,57.99
2023-05-23T10:38:36.967Z,58.09
2023-05-23T10:41:14.686Z,58.07
2023-05-23T10:43:50.933Z,58.79
2023-05-23T10:46:22.575Z,59.23
2023-05-23T10:48:57.919Z,58.48
2023-05-23T10:51:26.766Z,58.59
2023-05-23T10:53:56.410Z,57.70
2023-05-23T10:56:25.995Z,58.52
2023-05-23T10:58:55.957Z,58.14
2023-05-23T11:01:24.942Z,57.41
2023-05-23T11:03:56.107Z,57.02
2023-05-23T11:06:34.065Z,57.36
2023-05-23T11:09:10.514Z,56.99
2023-05-23T11:12:02.964Z,57.43
2023-05-23T11:14:54.606Z,57.26
2023-05-23T11:17:34.548Z,57.26
2023-05-23T11:20:10.107Z,58.35
2023-05-23T11:22:39.885Z,58.15
2023-05-23T11:25:11.049Z,57.27
2023-05-23T11:27:41.644Z,56.75
2023-05-23T11:30:13.522Z,57.24
2023-05-23T11:32:43.260Z,58.36
2023-05-23T11:35:12.506Z,59.02
2023-05-23T11:37:41.126Z,58.54
2023-05-23T11:40:32.273Z,58.26
2023-05-23T11:43:01.997Z,58.59
2023-05-23T11:45:32.258Z,58.82
2023-05-23T11:48:05.791Z,59.40
2023-05-23T11:50:34.241Z,59.19
2023-05-23T11:53:02.919Z,59.82
2023-05-23T11:55:32.839Z,60.00
2023-05-23T11:58:02.567Z,59.59
2023-05-23T12:00:31.615Z,58.68
2023-05-23T12:03:00.212Z,58.82
2023-05-23T12:05:30.497Z,58.94
2023-05-23T12:08:01.526Z,59.54
2023-05-23T12:10:30.069Z,59.56
2023-05-23T12:12:59.939Z,58.52
2023-05-23T12:15:28.986Z,56.18
2023-05-23T12:17:57.939Z,55.32
2023-05-23T12:20:28.511Z,56.00
2023-05-23T12:22:58.657Z,55.08
2023-05-23T12:25:26.939Z,55.24
2023-05-23T12:27:56.305Z,55.70
2023-05-23T12:30:26.306Z,55.97
2023-05-23T12:32:54.906Z,55.72
2023-05-23T12:35:27.673Z,55.12
2023-05-23T12:37:59.051Z,55.55
2023-05-23T12:40:27.591Z,55.36
2023-05-23T12:42:57.616Z,55.55
2023-05-23T12:45:35.049Z,56.06
2023-05-23T12:48:04.233Z,55.96
2023-05-23T12:50:32.448Z,56.67
2023-05-23T12:53:00.879Z,56.45
2023-05-23T12:55:32.036Z,57.07
2023-05-23T12:58:00.191Z,56.58
2023-05-23T13:00:29.958Z,55.13
2023-05-23T13:02:58.407Z,55.72
2023-05-23T13:05:28.624Z,56.21
2023-05-23T13:07:59.421Z,55.15
2023-05-23T13:10:31.992Z,54.76
2023-05-23T13:13:00.569Z,55.93
2023-05-23T13:15:30.316Z,55.25
2023-05-23T13:18:01.010Z,54.86
2023-05-23T13:20:30.858Z,55.09
2023-05-23T13:23:00.226Z,55.67
2023-05-23T13:25:29.250Z,56.08
2023-05-23T13:27:58.099Z,55.70
2023-05-23T13:30:27.215Z,55.79
2023-05-23T13:32:56.808Z,55.89
2023-05-23T13:35:25.290Z,56.25
2023-05-23T13:37:53.725Z,56.28
2023-05-23T13:40:23.140Z,56.84
2023-05-23T13:42:56.635Z,56.66
2023-05-23T13:45:25.080Z,56.79
2023-05-23T13:47:53.427Z,57.06
2023-05-23T13:50:23.632Z,56.53
2023-05-23T13:52:51.816Z,56.81
2023-05-23T13:55:19.935Z,57.08
2023-05-23T13:57:48.418Z,57.12
2023-05-23T14:00:17.408Z,57.48
2023-05-23T14:02:51.162Z,56.58
2023-05-23T14:05:20.389Z,56.92
2023-05-23T14:07:50.238Z,56.69
2023-05-23T14:10:19.373Z,56.38
2023-05-23T14:12:48.812Z,55.58
2023-05-23T14:15:21.375Z,55.38
2023-05-23T14:17:50.128Z,55.79
2023-05-23T14:20:18.629Z,55.88
2023-05-23T14:22:46.866Z,54.73
2023-05-23T14:25:21.197Z,55.37
2023-05-23T14:27:49.330Z,56.46
2023-05-23T14:30:17.929Z,55.98
2023-05-23T14:32:47.442Z,55.74
2023-05-23T14:35:15.780Z,56.13
2023-05-23T14:37:44.060Z,56.56
2023-05-23T14:40:17.166Z,56.46
2023-05-23T14:42:46.632Z,55.83
2023-05-23T14:45:18.632Z,55.54
2023-05-23T14:47:48.159Z,55.12
2023-05-23T14:50:17.168Z,55.40
2023-05-23T14:52:46.050Z,56.24
2023-05-23T14:55:15.166Z,55.24
2023-05-23T14:57:43.374Z,54.81
2023-05-23T15:00:14.669Z,54.36
2023-05-23T15:02:43.081Z,54.27
2023-05-23T15:05:11.613Z,54.58
2023-05-23T15:07:40.450Z,53.56
2023-05-23T15:10:09.904Z,54.19
2023-05-23T15:12:38.298Z,53.52
2023-05-23T15:15:07.764Z,54.69
2023-05-23T15:17:37.421Z,55.62
2023-05-23T15:20:07.795Z,55.98
2023-05-23T15:22:39.849Z,56.41
2023-05-23T15:25:10.061Z,55.34
2023-05-23T15:27:38.382Z,55.24
2023-05-23T15:30:08.428Z,54.86
2023-05-23T15:32:37.932Z,54.97
2023-05-23T15:35:08.215Z,55.01
2023-05-23T15:37:36.349Z,55.23
2023-05-23T15:40:06.360Z,54.91
2023-05-23T15:42:36.951Z,55.18
2023-05-23T15:45:06.075Z,54.41
2023-05-23T15:47:35.270Z,54.66
2023-05-23T15:50:05.523Z,54.29
2023-05-23T15:52:34.236Z,54.59
2023-05-23T15:55:05.565Z,54.75
2023-05-23T15:57:35.360Z,55.51
2023-05-23T16:00:04.368Z,55.60
2023-05-23T16:02:40.058Z,55.99
2023-05-23T16:05:11.125Z,55.58
2023-05-23T16:07:41.257Z,56.32
2023-05-23T16:10:10.680Z,56.59
2023-05-23T16:12:38.789Z,55.91
2023-05-23T16:15:08.025Z,56.08
2023-05-23T16:17:36.248Z,56.55
2023-05-23T16:20:04.684Z,56.69
2023-05-23T16:22:34.670Z,56.00
2023-05-23T16:25:02.877Z,55.54
2023-05-23T16:27:31.059Z,55.62
2023-05-23T16:29:59.261Z,55.51
2023-05-23T16:32:28.879Z,56.23
2023-05-23T16:34:58.273Z,56.23
2023-05-23T16:37:27.497Z,56.91
2023-05-23T16:39:57.275Z,57.28
2023-05-23T16:42:26.195Z,57.50
2023-05-23T16:44:54.595Z,56.83
2023-05-23T16:47:22.852Z,56.45
2023-05-23T16:49:51.169Z,56.82
2023-05-23T16:52:19.532Z,56.90
2023-05-23T16:54:47.617Z,57.37
2023-05-23T16:57:17.159Z,57.29
2023-05-23T16:59:46.182Z,56.67
2023-05-23T17:02:15.918Z,57.32
2023-05-23T17:04:44.276Z,57.35
2023-05-23T17:07:12.344Z,57.71
2023-05-23T17:09:40.763Z,57.72
2023-05-23T17:12:10.282Z,57.98
2023-05-23T17:14:39.710Z,57.83
2023-05-23T17:17:08.212Z,58.16
2023-05-23T17:19:43.009Z,57.55
2023-05-23T17:22:11.656Z,57.69
2023-05-23T17:24:39.770Z,57.77
2023-05-23T17:27:09.671Z,57.10
2023-05-23T17:29:40.310Z,57.25
2023-05-23T17:32:11.253Z,57.38
2023-05-23T17:34:39.744Z,56.99
2023-05-23T17:37:09.101Z,56.54
2023-05-23T17:39:37.184Z,56.54
2023-05-23T17:42:06.086Z,57.24
2023-05-23T17:44:34.196Z,57.21
2023-05-23T17:47:06.368Z,57.83
2023-05-23T17:49:35.331Z,57.91
2023-05-23T17:52:05.756Z,58.25
2023-05-23T17:54:34.229Z,58.12
2023-05-23T17:57:03.270Z,58.34
2023-05-23T17:59:32.479Z,58.44
2023-05-23T18:02:04.626Z,58.69
2023-05-23T18:04:34.432Z,59.00
2023-05-23T18:07:03.363Z,58.70
2023-05-23T18:09:32.005Z,58.78
2023-05-23T18:12:00.596Z,59.36
2023-05-23T18:14:28.662Z,59.26
2023-05-23T18:16:57.255Z,59.02
2023-05-23T18:19:26.369Z,59.64
2023-05-23T18:21:57.447Z,59.65
2023-05-23T18:24:25.756Z,59.80
2023-05-23T18:26:53.933Z,59.95
2023-05-23T18:29:22.388Z,60.00
2023-05-23T18:31:50.465Z,59.77
2023-05-23T18:34:19.356Z,59.73
2023-05-23T18:36:47.642Z,60.29
2023-05-23T18:39:21.344Z,59.82
2023-05-23T18:41:50.378Z,59.76
2023-05-23T18:44:20.692Z,60.05
2023-05-23T18:46:49.228Z,60.23
2023-05-23T18:49:17.381Z,60.56
2023-05-23T18:51:48.374Z,60.82
2023-05-23T18:54:16.537Z,60.67
2023-05-23T18:56:45.986Z,60.72
2023-05-23T18:59:16.369Z,60.53
2023-05-23T19:01:45.399Z,60.99
2023-05-23T19:04:13.605Z,60.56
2023-05-23T19:06:41.767Z,60.65
2023-05-23T19:09:11.552Z,61.02
2023-05-23T19:11:40.277Z,61.14
2023-05-23T19:14:11.422Z,60.80
2023-05-23T19:16:40.461Z,60.95
2023-05-23T19:19:08.573Z,60.45
2023-05-23T19:21:36.650Z,60.98
2023-05-23T19:24:08.413Z,60.80
2023-05-23T19:26:37.162Z,61.11
2023-05-23T19:29:06.251Z,60.93
2023-05-23T19:31:38.599Z,60.76
2023-05-23T19:34:07.546Z,60.98
2023-05-23T19:36:36.571Z,60.80
2023-05-23T19:39:06.409Z,60.87
2023-05-23T19:41:34.575Z,60.73
2023-05-23T19:44:02.834Z,60.56
2023-05-23T19:46:31.369Z,60.93
2023-05-23T19:49:00.966Z,61.21
2023-05-23T19:51:29.663Z,61.11
2023-05-23T19:53:57.843Z,61.13
2023-05-23T19:56:27.224Z,61.24
2023-05-23T19:58:55.426Z,61.32
2023-05-23T20:01:23.674Z,61.36
2023-05-23T20:03:52.581Z,61.63
2023-05-23T20:06:22.405Z,60.94
2023-05-23T20:08:50.678Z,61.21
2023-05-23T20:11:19.426Z,61.61
2023-05-23T20:13:48.418Z,61.81
2023-05-23T20:16:17.868Z,60.98
2023-05-23T20:18:46.011Z,60.99
2023-05-23T20:21:14.120Z,61.03
2023-05-23T20:23:45.180Z,61.37
2023-05-23T20:26:13.376Z,60.94
2023-05-23T20:28:41.456Z,61.50
2023-05-23T20:31:10.573Z,61.10
2023-05-23T20:33:38.685Z,61.38
2023-05-23T20:36:07.713Z,61.04
2023-05-23T20:38:35.970Z,61.30
2023-05-23T20:41:07.497Z,60.98
2023-05-23T20:43:37.291Z,60.90
2023-05-23T20:46:06.552Z,61.14
2023-05-23T20:48:34.914Z,61.15
2023-05-23T20:51:05.550Z,60.79
2023-05-23T20:53:35.172Z,60.68
2023-05-23T20:56:05.502Z,60.73
2023-05-23T20:58:34.559Z,60.42
2023-05-23T21:01:04.708Z,60.82
2023-05-23T21:03:32.966Z,60.22
2023-05-23T21:06:01.118Z,60.07
2023-05-23T21:08:30.005Z,59.32
2023-05-23T21:10:59.349Z,59.48
2023-05-23T21:13:28.800Z,59.19
2023-05-23T21:16:00.893Z,59.22
2023-05-23T21:18:29.034Z,58.96
2023-05-23T21:20:57.175Z,58.56
2023-05-23T21:23:25.286Z,58.92
2023-05-23T21:25:54.521Z,59.65
2023-05-23T21:28:22.829Z,59.21
2023-05-23T21:30:52.680Z,59.30
2023-05-23T21:33:21.081Z,59.51
2023-05-23T21:35:49.495Z,59.05
2023-05-23T21:38:17.730Z,59.50
2023-05-23T21:40:45.991Z,59.50
2023-05-23T21:43:14.017Z,59.03
2023-05-23T21:45:42.733Z,58.99
2023-05-23T21:48:12.520Z,58.84
2023-05-23T21:50:40.823Z,58.77
2023-05-23T21:53:09.021Z,58.86
2023-05-23T21:55:37.121Z,59.09
2023-05-23T21:58:05.256Z,58.98
2023-05-23T22:00:33.450Z,59.00
2023-05-23T22:03:01.828Z,58.77
2023-05-23T22:05:31.472Z,58.57
2023-05-23T22:08:00.677Z,59.08
2023-05-23T22:10:29.039Z,58.67
2023-05-23T22:12:57.342Z,58.95
2023-05-23T22:15:25.403Z,58.93
2023-05-23T22:17:53.635Z,58.64
2023-05-23T22:20:23.211Z,58.76
2023-05-23T22:22:52.725Z,58.73
2023-05-23T22:25:21.820Z,58.56
2023-05-23T22:27:49.951Z,58.48
2023-05-23T22:30:18.726Z,58.56
2023-05-23T22:32:46.919Z,58.41
2023-05-23T22:35:15.123Z,58.41
2023-05-23T22:37:43.260Z,57.83
2023-05-23T22:40:13.073Z,58.25
2023-05-23T22:42:41.262Z,58.53
2023-05-23T22:45:10.781Z,58.51
2023-05-23T22:47:40.476Z,58.35
2023-05-23T22:50:10.413Z,58.84
2023-05-23T22:52:38.565Z,58.73
2023-05-23T22:55:10.153Z,58.77
2023-05-23T22:57:39.562Z,58.64
2023-05-23T23:00:13.511Z,58.41
2023-05-23T23:02:44.175Z,58.03
2023-05-23T23:05:12.815Z,58.03
2023-05-23T23:07:41.038Z,58.08
2023-05-23T23:10:10.898Z,57.76
2023-05-23T23:12:40.720Z,57.74
2023-05-23T23:15:10.133Z,58.10
2023-05-23T23:17:39.396Z,57.74
2023-05-23T23:20:10.312Z,57.66
2023-05-23T23:22:38.952Z,57.61
2023-05-23T23:25:10.390Z,57.00
2023-05-23T23:27:39.964Z,57.33
2023-05-23T23:30:10.246Z,57.46
2023-05-23T23:32:38.512Z,56.95
2023-05-23T23:35:07.556Z,56.90
2023-05-23T23:37:35.847Z,57.13
2023-05-23T23:40:04.926Z,56.69
2023-05-23T23:42:33.024Z,57.18
2023-05-23T23:45:02.503Z,55.99
2023-05-23T23:47:32.282Z,56.34
2023-05-23T23:50:00.665Z,56.58
2023-05-23T23:52:30.067Z,56.51
2023-05-23T23:54:58.150Z,56.62
2023-05-23T23:57:26.306Z,56.60
2023-05-23T23:59:54.413Z,56.52
